Time;durP1;ratioP1;P1;durP2;ratioP2;P2;SDS_P1;SDS_P2;PMS_P1;PMS_P2;Temp;Humidity;BMP_temperature;BMP_pressure;BME280_temperature;BME280_humidity;BME280_pressure;Samples;Min_cycle;Max_cycle;Signal;HPM_P1;HPM_P2
2022/06/26 00:02:23;;;;;;;25.75;23.52;;;;;;;;;;5025898;28;20243;-51
2022/06/26 00:04:50;;;;;;;28.33;25.67;;;;;;;;;;5019876;28;20243;-52
2022/06/26 00:07:16;;;;;;;26.20;23.83;;;;;;;;;;5040593;28;20231;-52
2022/06/26 00:09:46;;;;;;;20.95;19.05;;;;;;;;;;5030005;28;20232;-51
2022/06/26 00:12:12;;;;;;;24.30;21.90;;;;;;;;;;5019392;28;20506;-51
2022/06/26 00:14:39;;;;;;;25.15;22.80;;;;;;;;;;5043868;28;20600;-52
2022/06/26 00:17:06;;;;;;;25.67;23.48;;;;;;;;;;5015700;28;20225;-52
2022/06/26 00:19:34;;;;;;;24.98;22.60;;;;;;;;;;5033341;28;20227;-52
2022/06/26 00:22:05;;;;;;;22.40;20.40;;;;;;;;;;5026597;28;20224;-52
2022/06/26 00:24:31;;;;;;;21.33;19.38;;;;;;;;;;5041055;28;20584;-52
2022/06/26 00:26:58;;;;;;;20.05;18.38;;;;;;;;;;5034496;28;20223;-52
2022/06/26 00:29:24;;;;;;;19.45;17.50;;;;;;;;;;5030664;28;21745;-50
2022/06/26 00:31:50;;;;;;;23.67;21.60;;;;;;;;;;5037974;28;20240;-51
2022/06/26 00:34:18;;;;;;;21.25;19.45;;;;;;;;;;5044466;28;20318;-51
2022/06/26 00:36:46;;;;;;;19.73;18.20;;;;;;;;;;5033889;28;20313;-50
2022/06/26 00:39:12;;;;;;;19.15;17.52;;;;;;;;;;5032523;28;20221;-53
2022/06/26 00:41:39;;;;;;;20.50;18.63;;;;;;;;;;5027994;28;20231;-51
2022/06/26 00:44:13;;;;;;;17.95;16.42;;;;;;;;;;5033752;28;20253;-51
2022/06/26 00:46:39;;;;;;;18.17;16.75;;;;;;;;;;5042822;28;20621;-52
2022/06/26 00:49:05;;;;;;;16.98;15.57;;;;;;;;;;5023508;28;20517;-51
2022/06/26 00:51:34;;;;;;;18.58;16.67;;;;;;;;;;5031765;28;20604;-52
2022/06/26 00:54:00;;;;;;;17.90;16.50;;;;;;;;;;5036929;28;20784;-52
2022/06/26 00:56:27;;;;;;;16.45;15.15;;;;;;;;;;5035446;28;20323;-52
2022/06/26 00:58:53;;;;;;;15.77;14.48;;;;;;;;;;5037098;28;20236;-51
2022/06/26 01:01:20;;;;;;;14.98;13.52;;;;;;;;;;5032875;28;20311;-51
2022/06/26 01:03:46;;;;;;;16.02;14.52;;;;;;;;;;5043804;28;20231;-51
2022/06/26 01:06:12;;;;;;;15.73;14.45;;;;;;;;;;5034884;28;20224;-52
2022/06/26 01:08:40;;;;;;;17.77;16.40;;;;;;;;;;5035855;28;20228;-52
2022/06/26 01:11:17;;;;;;;17.27;15.88;;;;;;;;;;5040182;28;20228;-51
2022/06/26 01:13:44;;;;;;;14.40;13.20;;;;;;;;;;5030250;28;20362;-51
2022/06/26 01:16:11;;;;;;;18.30;16.48;;;;;;;;;;5040119;28;20228;-52
2022/06/26 01:18:37;;;;;;;16.13;14.82;;;;;;;;;;5033481;28;20732;-52
2022/06/26 01:21:04;;;;;;;16.88;15.48;;;;;;;;;;5024297;28;20246;-52
2022/06/26 01:23:31;;;;;;;15.65;14.45;;;;;;;;;;5044774;28;20239;-52
2022/06/26 01:25:58;;;;;;;15.25;13.80;;;;;;;;;;5040244;28;20258;-52
2022/06/26 01:28:24;;;;;;;15.57;14.27;;;;;;;;;;5031951;28;20245;-51
2022/06/26 01:30:50;;;;;;;15.73;14.45;;;;;;;;;;5035756;28;20323;-51
2022/06/26 01:33:17;;;;;;;15.73;14.43;;;;;;;;;;5026455;28;20236;-51
2022/06/26 01:35:43;;;;;;;16.98;15.40;;;;;;;;;;5023919;28;20762;-52
2022/06/26 01:38:13;;;;;;;16.33;14.85;;;;;;;;;;5041389;28;20232;-51
2022/06/26 01:40:41;;;;;;;15.15;13.90;;;;;;;;;;5031504;28;20247;-49
2022/06/26 01:43:08;;;;;;;15.02;13.82;;;;;;;;;;5037290;28;20433;-51
2022/06/26 01:45:34;;;;;;;15.32;14.13;;;;;;;;;;5042564;28;20240;-51
2022/06/26 01:48:00;;;;;;;16.48;15.18;;;;;;;;;;5038413;28;20228;-51
2022/06/26 01:50:27;;;;;;;16.00;14.60;;;;;;;;;;5041395;28;20231;-51
2022/06/26 01:52:53;;;;;;;15.73;14.50;;;;;;;;;;5033254;28;20235;-51
2022/06/26 01:55:20;;;;;;;16.13;14.75;;;;;;;;;;5032772;28;20312;-50
2022/06/26 01:57:47;;;;;;;18.20;16.40;;;;;;;;;;5030008;28;20789;-51
2022/06/26 02:00:14;;;;;;;19.33;17.73;;;;;;;;;;5036300;28;20240;-51
2022/06/26 02:02:40;;;;;;;20.42;18.38;;;;;;;;;;5026536;28;20291;-52
2022/06/26 02:05:07;;;;;;;20.73;18.75;;;;;;;;;;5028052;28;20236;-51
2022/06/26 02:07:33;;;;;;;16.95;15.52;;;;;;;;;;5032171;28;20642;-50
2022/06/26 02:15:29;;;;;;;19.55;18.02;;;;;;;;;;5039400;28;20238;-51
2022/06/26 02:17:55;;;;;;;18.48;16.88;;;;;;;;;;5041349;28;20240;-51
2022/06/26 02:20:22;;;;;;;18.17;16.70;;;;;;;;;;5022601;28;20231;-53
2022/06/26 02:22:48;;;;;;;19.75;18.15;;;;;;;;;;5024568;28;20232;-53
2022/06/26 02:25:15;;;;;;;21.17;19.48;;;;;;;;;;5025291;28;20278;-52
2022/06/26 02:27:41;;;;;;;20.55;18.92;;;;;;;;;;5026575;28;20232;-52
2022/06/26 02:30:08;;;;;;;20.95;19.20;;;;;;;;;;5030045;28;20260;-50
2022/06/26 02:32:35;;;;;;;18.23;16.75;;;;;;;;;;5038989;28;20605;-52
2022/06/26 02:35:02;;;;;;;17.95;16.52;;;;;;;;;;5028740;28;20721;-52
2022/06/26 02:37:28;;;;;;;22.23;20.30;;;;;;;;;;5025446;28;20239;-53
2022/06/26 02:39:54;;;;;;;20.80;19.13;;;;;;;;;;5032637;28;20232;-51
2022/06/26 02:42:21;;;;;;;22.17;20.27;;;;;;;;;;5026137;28;20237;-51
2022/06/26 02:44:47;;;;;;;17.88;16.48;;;;;;;;;;5029663;28;20232;-51
2022/06/26 02:47:13;;;;;;;19.92;18.25;;;;;;;;;;5022203;28;20277;-52
2022/06/26 02:49:41;;;;;;;21.17;19.38;;;;;;;;;;5029609;28;20228;-51
2022/06/26 02:52:07;;;;;;;17.77;16.38;;;;;;;;;;5024938;28;20229;-52
2022/06/26 02:54:34;;;;;;;17.33;15.93;;;;;;;;;;5025333;28;20248;-52
2022/06/26 02:57:00;;;;;;;20.02;18.23;;;;;;;;;;5029419;28;20232;-53
2022/06/26 02:59:26;;;;;;;19.30;17.70;;;;;;;;;;5036862;28;20243;-50
2022/06/26 03:01:53;;;;;;;21.58;19.70;;;;;;;;;;5035550;28;20228;-52
2022/06/26 03:04:19;;;;;;;19.48;17.77;;;;;;;;;;5032183;28;20237;-51
2022/06/26 03:06:47;;;;;;;18.05;16.45;;;;;;;;;;5038689;28;20232;-51
2022/06/26 03:09:13;;;;;;;21.52;19.75;;;;;;;;;;5040239;28;20224;-52
2022/06/26 03:11:40;;;;;;;18.88;17.38;;;;;;;;;;5028097;28;20240;-52
2022/06/26 03:14:07;;;;;;;26.17;23.92;;;;;;;;;;5038961;28;20298;-51
2022/06/26 03:16:33;;;;;;;24.25;22.10;;;;;;;;;;5034234;28;20236;-52
2022/06/26 03:19:00;;;;;;;19.40;17.77;;;;;;;;;;5041909;28;20229;-52
2022/06/26 03:21:26;;;;;;;23.10;21.20;;;;;;;;;;5038881;28;23059;-52
2022/06/26 03:24:03;;;;;;;24.58;22.58;;;;;;;;;;5035232;28;20858;-52
2022/06/26 03:26:29;;;;;;;25.67;23.40;;;;;;;;;;5040638;28;20236;-51
2022/06/26 03:28:56;;;;;;;24.83;22.83;;;;;;;;;;5031125;28;20241;-52
2022/06/26 03:31:22;;;;;;;25.00;22.92;;;;;;;;;;5031943;28;20228;-51
2022/06/26 03:33:48;;;;;;;22.52;20.75;;;;;;;;;;5032412;28;20241;-51
2022/06/26 03:36:15;;;;;;;21.58;19.77;;;;;;;;;;5028791;28;20266;-51
2022/06/26 03:38:41;;;;;;;27.00;24.63;;;;;;;;;;5032896;28;20240;-52
2022/06/26 03:41:09;;;;;;;25.40;23.30;;;;;;;;;;5030635;28;20241;-51
2022/06/26 03:43:35;;;;;;;23.42;21.42;;;;;;;;;;5034283;28;20232;-50
2022/06/26 03:46:01;;;;;;;25.23;22.92;;;;;;;;;;5030439;28;20323;-51
2022/06/26 03:48:28;;;;;;;23.88;21.77;;;;;;;;;;5033974;28;20232;-52
2022/06/26 03:50:54;;;;;;;25.98;23.88;;;;;;;;;;5028516;28;20236;-51
2022/06/26 03:53:20;;;;;;;29.95;27.45;;;;;;;;;;5034871;28;20228;-51
2022/06/26 03:55:47;;;;;;;31.33;28.52;;;;;;;;;;5023234;28;20248;-51
2022/06/26 03:58:14;;;;;;;41.30;37.47;;;;;;;;;;5027514;28;20232;-51
2022/06/26 04:00:41;;;;;;;46.30;42.10;;;;;;;;;;5030329;28;20236;-50
2022/06/26 04:03:08;;;;;;;47.05;42.95;;;;;;;;;;5030475;28;20243;-53
2022/06/26 04:05:35;;;;;;;51.85;47.22;;;;;;;;;;5036276;28;20228;-51
2022/06/26 04:08:02;;;;;;;48.50;44.03;;;;;;;;;;5027821;28;20234;-51
2022/06/26 04:10:28;;;;;;;42.85;38.90;;;;;;;;;;5030601;28;20247;-53
2022/06/26 04:12:58;;;;;;;43.58;39.50;;;;;;;;;;5035129;28;20235;-51
2022/06/26 04:15:25;;;;;;;34.08;31.15;;;;;;;;;;5018650;28;20233;-51
2022/06/26 04:17:52;;;;;;;38.00;34.58;;;;;;;;;;5028621;28;20233;-51
2022/06/26 04:20:18;;;;;;;30.58;27.98;;;;;;;;;;5029208;28;20239;-51
2022/06/26 04:22:54;;;;;;;31.50;28.65;;;;;;;;;;5032790;28;20286;-51
2022/06/26 04:25:23;;;;;;;26.73;24.38;;;;;;;;;;5035147;28;20246;-51
2022/06/26 04:27:49;;;;;;;26.17;23.88;;;;;;;;;;5027833;28;20232;-51
2022/06/26 04:30:15;;;;;;;27.35;24.83;;;;;;;;;;5032968;28;20490;-53
2022/06/26 04:32:43;;;;;;;21.00;19.10;;;;;;;;;;5026323;28;20646;-53
2022/06/26 04:35:09;;;;;;;22.65;20.55;;;;;;;;;;5037945;28;20232;-51
2022/06/26 04:37:36;;;;;;;18.35;16.67;;;;;;;;;;5033104;28;20232;-52
2022/06/26 04:40:03;;;;;;;17.63;16.17;;;;;;;;;;5029021;28;20316;-52
2022/06/26 04:42:29;;;;;;;19.17;17.67;;;;;;;;;;5024127;28;20228;-51
2022/06/26 04:44:56;;;;;;;19.13;17.42;;;;;;;;;;5040988;28;20240;-51
2022/06/26 04:47:22;;;;;;;22.88;20.98;;;;;;;;;;5044824;28;20228;-51
2022/06/26 04:49:50;;;;;;;17.92;16.52;;;;;;;;;;5050417;28;20631;-50
2022/06/26 04:52:16;;;;;;;19.05;17.42;;;;;;;;;;5046545;28;20235;-51
2022/06/26 04:54:43;;;;;;;17.10;15.70;;;;;;;;;;5038920;28;20736;-51
2022/06/26 04:57:09;;;;;;;13.63;12.52;;;;;;;;;;5047942;28;20232;-50
2022/06/26 04:59:36;;;;;;;15.07;13.85;;;;;;;;;;5050583;28;20316;-50
2022/06/26 05:02:03;;;;;;;16.58;14.98;;;;;;;;;;5030652;28;20239;-50
2022/06/26 05:04:29;;;;;;;14.80;13.60;;;;;;;;;;5028037;28;20709;-52
2022/06/26 05:06:57;;;;;;;15.00;13.68;;;;;;;;;;5030617;28;20614;-52
2022/06/26 05:09:24;;;;;;;13.18;12.07;;;;;;;;;;5041545;28;20709;-51
2022/06/26 05:11:50;;;;;;;15.77;14.48;;;;;;;;;;5036276;28;20241;-51
2022/06/26 05:14:17;;;;;;;15.00;13.60;;;;;;;;;;5031245;28;20323;-52
2022/06/26 05:16:43;;;;;;;17.02;15.63;;;;;;;;;;5031038;28;20232;-52
2022/06/26 05:19:09;;;;;;;14.65;13.38;;;;;;;;;;5021619;28;20224;-52
2022/06/26 05:21:36;;;;;;;13.82;12.52;;;;;;;;;;5039737;28;20709;-51
2022/06/26 05:24:04;;;;;;;15.70;14.50;;;;;;;;;;5043303;28;20247;-52
2022/06/26 05:26:30;;;;;;;14.85;13.65;;;;;;;;;;5045293;28;20580;-52
2022/06/26 05:28:57;;;;;;;14.77;13.55;;;;;;;;;;5035492;28;20319;-52
2022/06/26 05:31:23;;;;;;;14.00;12.90;;;;;;;;;;5040121;28;20239;-52
2022/06/26 05:33:49;;;;;;;14.77;13.48;;;;;;;;;;5037410;28;20240;-49
2022/06/26 05:36:16;;;;;;;20.33;18.35;;;;;;;;;;5030730;28;20224;-51
2022/06/26 05:38:42;;;;;;;17.20;15.70;;;;;;;;;;5030702;28;20231;-51
2022/06/26 05:41:10;;;;;;;17.00;15.63;;;;;;;;;;5034082;28;20232;-50
2022/06/26 05:43:37;;;;;;;18.17;16.58;;;;;;;;;;5023891;28;20237;-50
2022/06/26 05:46:03;;;;;;;14.95;13.85;;;;;;;;;;5021967;28;20441;-51
2022/06/26 05:48:29;;;;;;;15.27;14.10;;;;;;;;;;5031461;28;20259;-51
2022/06/26 05:50:56;;;;;;;15.02;13.85;;;;;;;;;;5040968;28;20628;-51
2022/06/26 05:53:22;;;;;;;16.95;15.57;;;;;;;;;;5031192;28;20233;-52
2022/06/26 05:55:49;;;;;;;16.23;14.93;;;;;;;;;;5037889;28;20236;-51
2022/06/26 05:58:17;;;;;;;18.10;16.63;;;;;;;;;;5035894;28;20750;-51
2022/06/26 06:00:43;;;;;;;17.50;16.08;;;;;;;;;;5032750;28;20721;-52
2022/06/26 06:03:10;;;;;;;14.85;13.65;;;;;;;;;;5029552;28;20758;-51
2022/06/26 06:05:36;;;;;;;13.73;12.70;;;;;;;;;;5029444;28;20236;-53
2022/06/26 06:08:03;;;;;;;14.35;13.15;;;;;;;;;;5043581;28;20224;-50
2022/06/26 06:10:29;;;;;;;14.32;13.02;;;;;;;;;;5025565;28;20701;-51
2022/06/26 06:12:56;;;;;;;12.88;11.88;;;;;;;;;;5038711;28;20246;-52
2022/06/26 06:15:24;;;;;;;13.05;11.95;;;;;;;;;;5046387;28;20231;-51
2022/06/26 06:17:50;;;;;;;11.27;10.38;;;;;;;;;;5044357;28;20220;-51
2022/06/26 06:20:19;;;;;;;12.10;11.25;;;;;;;;;;5046450;28;20232;-52
2022/06/26 06:22:46;;;;;;;10.23;9.52;;;;;;;;;;5041158;28;20623;-52
2022/06/26 06:25:13;;;;;;;11.40;10.40;;;;;;;;;;5045744;28;20231;-52
2022/06/26 06:27:40;;;;;;;9.25;8.60;;;;;;;;;;5043601;28;20583;-51
2022/06/26 06:30:07;;;;;;;9.68;8.88;;;;;;;;;;5023579;28;20228;-51
2022/06/26 06:32:35;;;;;;;9.30;8.60;;;;;;;;;;5038447;28;20633;-52
2022/06/26 06:35:02;;;;;;;10.15;9.40;;;;;;;;;;5035593;28;20247;-51
2022/06/26 06:37:28;;;;;;;9.18;8.48;;;;;;;;;;5039249;28;20239;-51
2022/06/26 06:39:54;;;;;;;9.85;9.15;;;;;;;;;;5026690;28;20233;-52
2022/06/26 06:42:21;;;;;;;8.20;7.55;;;;;;;;;;5034235;28;20231;-52
2022/06/26 06:44:47;;;;;;;7.80;7.20;;;;;;;;;;5031399;28;20461;-52
2022/06/26 06:47:14;;;;;;;7.65;7.03;;;;;;;;;;5033524;28;20324;-52
2022/06/26 06:49:41;;;;;;;7.93;7.22;;;;;;;;;;5033382;28;20235;-52
2022/06/26 06:52:08;;;;;;;7.45;6.95;;;;;;;;;;5019858;28;20240;-53
2022/06/26 06:54:35;;;;;;;8.40;7.50;;;;;;;;;;5042544;28;20246;-51
2022/06/26 06:57:01;;;;;;;7.82;7.30;;;;;;;;;;5042967;28;20239;-52
2022/06/26 06:59:28;;;;;;;8.18;7.47;;;;;;;;;;5032404;28;20243;-51
2022/06/26 07:01:54;;;;;;;7.32;6.68;;;;;;;;;;5044384;28;20259;-51
2022/06/26 07:04:20;;;;;;;7.10;6.60;;;;;;;;;;5044993;28;20259;-51
2022/06/26 07:06:48;;;;;;;6.85;6.35;;;;;;;;;;5045031;28;20639;-52
2022/06/26 07:09:15;;;;;;;7.57;6.97;;;;;;;;;;5044452;28;20243;-52
2022/06/26 07:11:41;;;;;;;7.18;6.68;;;;;;;;;;5048484;28;20258;-52
2022/06/26 07:14:07;;;;;;;7.75;7.18;;;;;;;;;;5044721;28;20235;-55
2022/06/26 07:16:34;;;;;;;6.30;5.90;;;;;;;;;;5046672;28;20230;-52
2022/06/26 07:19:00;;;;;;;7.88;7.07;;;;;;;;;;5037028;28;20236;-51
2022/06/26 07:21:26;;;;;;;6.43;6.03;;;;;;;;;;5023181;28;20251;-51
2022/06/26 07:23:54;;;;;;;7.75;7.15;;;;;;;;;;5022928;28;20714;-52
2022/06/26 07:26:20;;;;;;;7.13;6.63;;;;;;;;;;5028888;28;20712;-51
2022/06/26 07:28:46;;;;;;;8.23;7.55;;;;;;;;;;5035868;28;20228;-52
2022/06/26 07:31:13;;;;;;;7.68;7.07;;;;;;;;;;5033188;28;20233;-52
2022/06/26 07:36:22;;;;;;;7.57;6.97;;;;;;;;;;5018963;28;20233;-52
2022/06/26 07:38:49;;;;;;;7.78;7.13;;;;;;;;;;5024352;28;20734;-50
2022/06/26 07:41:16;;;;;;;7.70;7.10;;;;;;;;;;5023064;28;20225;-50
2022/06/26 07:43:43;;;;;;;8.00;7.40;;;;;;;;;;5040449;28;20333;-53
2022/06/26 07:46:09;;;;;;;7.40;6.90;;;;;;;;;;5034234;28;20245;-53
2022/06/26 07:48:36;;;;;;;8.32;7.72;;;;;;;;;;5032871;28;20318;-52
2022/06/26 07:51:02;;;;;;;8.70;8.00;;;;;;;;;;5022977;28;20229;-52
2022/06/26 07:53:29;;;;;;;7.55;7.00;;;;;;;;;;5033324;28;20261;-51
2022/06/26 07:55:55;;;;;;;8.65;7.95;;;;;;;;;;5044211;28;20721;-52
2022/06/26 07:58:23;;;;;;;9.30;8.60;;;;;;;;;;5042459;28;20289;-52
2022/06/26 08:00:49;;;;;;;8.13;7.32;;;;;;;;;;5044464;28;20319;-53
2022/06/26 08:03:16;;;;;;;7.70;7.10;;;;;;;;;;5050552;28;20248;-51
2022/06/26 08:05:42;;;;;;;10.43;9.52;;;;;;;;;;5044362;28;20246;-53
2022/06/26 08:08:09;;;;;;;6.88;6.30;;;;;;;;;;5046468;28;20227;-52
2022/06/26 08:10:35;;;;;;;7.45;6.78;;;;;;;;;;5043964;28;20236;-52
2022/06/26 08:13:02;;;;;;;7.22;5.60;;;;;;;;;;5052025;28;20244;-51
2022/06/26 08:15:30;;;;;;;7.18;6.68;;;;;;;;;;5044514;28;20799;-52
2022/06/26 08:17:57;;;;;;;9.43;8.52;;;;;;;;;;5041546;28;20235;-52
2022/06/26 08:20:24;;;;;;;7.57;6.97;;;;;;;;;;5044141;28;20238;-52
2022/06/26 08:22:50;;;;;;;6.80;6.30;;;;;;;;;;5052050;28;20230;-50
2022/06/26 08:25:16;;;;;;;6.35;5.85;;;;;;;;;;5048391;28;20620;-51
2022/06/26 08:27:43;;;;;;;6.28;5.88;;;;;;;;;;5048004;28;20748;-52
2022/06/26 08:30:10;;;;;;;6.40;5.90;;;;;;;;;;5049289;28;20235;-51
2022/06/26 08:32:38;;;;;;;6.00;5.60;;;;;;;;;;5047686;28;20239;-51
2022/06/26 08:35:05;;;;;;;6.20;5.72;;;;;;;;;;5034403;28;20250;-51
2022/06/26 08:37:31;;;;;;;6.80;6.18;;;;;;;;;;5045565;28;20724;-51
2022/06/26 08:39:57;;;;;;;5.88;5.43;;;;;;;;;;5036873;28;20220;-52
2022/06/26 08:42:26;;;;;;;7.25;6.65;;;;;;;;;;5038664;28;20235;-52
2022/06/26 08:44:55;;;;;;;5.85;5.35;;;;;;;;;;5047871;28;20290;-52
2022/06/26 08:47:24;;;;;;;5.88;5.38;;;;;;;;;;5038151;28;20228;-51
2022/06/26 08:49:52;;;;;;;6.18;5.68;;;;;;;;;;5047018;28;20235;-51
2022/06/26 08:52:20;;;;;;;5.90;5.50;;;;;;;;;;5043882;28;20232;-52
2022/06/26 08:54:47;;;;;;;5.28;4.97;;;;;;;;;;5046928;28;20231;-52
2022/06/26 08:57:15;;;;;;;5.30;4.90;;;;;;;;;;5047765;28;20239;-51
2022/06/26 08:59:41;;;;;;;5.30;4.90;;;;;;;;;;5026730;28;20711;-52
2022/06/26 09:02:07;;;;;;;6.07;5.57;;;;;;;;;;5033314;28;20282;-51
2022/06/26 09:04:34;;;;;;;6.18;5.60;;;;;;;;;;5025978;28;20232;-52
2022/06/26 09:07:01;;;;;;;4.78;4.43;;;;;;;;;;5034556;28;20482;-51
2022/06/26 09:09:28;;;;;;;5.30;4.80;;;;;;;;;;5038252;28;20242;-51
2022/06/26 09:11:55;;;;;;;5.50;5.10;;;;;;;;;;5038969;28;20232;-51
2022/06/26 09:14:22;;;;;;;6.00;5.60;;;;;;;;;;5034186;28;20318;-53
2022/06/26 09:16:50;;;;;;;5.78;5.38;;;;;;;;;;5028088;28;20232;-52
2022/06/26 09:19:18;;;;;;;6.47;5.88;;;;;;;;;;5035104;28;20235;-50
2022/06/26 09:21:45;;;;;;;5.95;5.57;;;;;;;;;;5036063;28;20228;-52
2022/06/26 09:24:14;;;;;;;6.55;6.15;;;;;;;;;;5027510;28;20232;-51
2022/06/26 09:26:41;;;;;;;6.63;6.13;;;;;;;;;;5031843;28;20613;-51
2022/06/26 09:29:11;;;;;;;6.30;5.90;;;;;;;;;;5035466;28;20229;-52
2022/06/26 09:31:37;;;;;;;7.20;6.70;;;;;;;;;;5043763;28;20234;-52
2022/06/26 09:34:04;;;;;;;6.40;5.93;;;;;;;;;;5043995;28;20232;-50
2022/06/26 09:36:30;;;;;;;6.85;6.35;;;;;;;;;;5036569;28;20228;-51
2022/06/26 09:38:57;;;;;;;5.63;5.32;;;;;;;;;;5032169;28;20220;-51
2022/06/26 09:41:30;;;;;;;6.05;5.65;;;;;;;;;;5034762;28;20228;-55
2022/06/26 09:43:57;;;;;;;6.13;5.72;;;;;;;;;;5048367;28;20754;-53
2022/06/26 09:46:28;;;;;;;6.47;5.95;;;;;;;;;;5031734;28;20250;-54
2022/06/26 09:48:56;;;;;;;5.88;5.45;;;;;;;;;;5032417;28;20314;-51
2022/06/26 09:51:24;;;;;;;6.20;5.60;;;;;;;;;;5040042;28;20304;-52
2022/06/26 09:53:50;;;;;;;6.80;6.25;;;;;;;;;;5036193;28;20274;-53
2022/06/26 09:56:17;;;;;;;7.75;7.05;;;;;;;;;;5038172;28;20236;-52
2022/06/26 09:58:45;;;;;;;6.88;6.38;;;;;;;;;;5045796;28;20710;-51
2022/06/26 10:06:55;;;;;;;6.80;6.20;;;;;;;;;;4948958;28;20304;-51
2022/06/26 10:09:22;;;;;;;8.57;7.68;;;;;;;;;;5003783;28;20224;-53
2022/06/26 10:11:48;;;;;;;6.50;6.00;;;;;;;;;;5044886;28;20232;-51
2022/06/26 10:14:17;;;;;;;9.85;8.95;;;;;;;;;;5031060;28;20233;-52
2022/06/26 10:17:02;;;;;;;6.90;6.28;;;;;;;;;;5029319;28;20243;-52
2022/06/26 10:19:32;;;;;;;7.38;6.70;;;;;;;;;;5026797;28;20236;-51
2022/06/26 10:21:59;;;;;;;6.13;5.72;;;;;;;;;;5023913;28;20243;-51
2022/06/26 10:24:25;;;;;;;7.18;6.65;;;;;;;;;;5021662;28;20232;-52
2022/06/26 10:26:53;;;;;;;8.75;6.75;;;;;;;;;;5021078;28;20843;-51
2022/06/26 10:29:31;;;;;;;6.75;6.00;;;;;;;;;;5018769;28;20320;-53
2022/06/26 10:31:58;;;;;;;7.82;7.15;;;;;;;;;;5034496;28;20227;-51
2022/06/26 10:34:25;;;;;;;7.80;7.20;;;;;;;;;;5036434;28;20231;-53
2022/06/26 10:36:59;;;;;;;6.90;6.45;;;;;;;;;;5043374;28;20235;-52
2022/06/26 10:39:36;;;;;;;8.20;7.40;;;;;;;;;;5037096;28;20224;-50
2022/06/26 10:44:53;;;;;;;6.05;5.55;;;;;;;;;;5032984;28;20230;-52
2022/06/26 10:47:19;;;;;;;5.72;5.22;;;;;;;;;;5037000;28;20231;-50
2022/06/26 10:49:49;;;;;;;8.40;5.50;;;;;;;;;;5015633;28;20229;-51
2022/06/26 10:52:28;;;;;;;6.05;5.65;;;;;;;;;;5026237;28;20235;-52
2022/06/26 10:54:57;;;;;;;6.30;5.72;;;;;;;;;;5030165;28;20275;-51
2022/06/26 10:57:32;;;;;;;5.93;5.53;;;;;;;;;;5039095;28;20228;-51
2022/06/26 11:00:01;;;;;;;5.80;5.40;;;;;;;;;;5045668;28;20361;-52
2022/06/26 11:02:34;;;;;;;5.57;5.18;;;;;;;;;;5044106;28;20262;-53
2022/06/26 11:05:01;;;;;;;6.10;5.60;;;;;;;;;;5041566;28;20244;-51
2022/06/26 11:07:28;;;;;;;6.20;5.70;;;;;;;;;;5044081;28;20314;-52
2022/06/26 11:09:56;;;;;;;5.00;4.57;;;;;;;;;;5041557;28;20227;-52
2022/06/26 11:12:22;;;;;;;5.22;4.80;;;;;;;;;;5041460;28;20236;-53
2022/06/26 11:14:49;;;;;;;5.60;5.20;;;;;;;;;;5039681;28;20756;-51
2022/06/26 11:17:22;;;;;;;5.22;4.82;;;;;;;;;;5039992;28;20247;-52
2022/06/26 11:22:29;;;;;;;5.50;5.13;;;;;;;;;;5025932;28;20246;-51
2022/06/26 11:24:56;;;;;;;5.18;4.50;;;;;;;;;;5028988;28;20754;-51
2022/06/26 11:27:23;;;;;;;5.05;4.75;;;;;;;;;;5030453;28;20255;-52
2022/06/26 11:29:49;;;;;;;4.75;4.45;;;;;;;;;;5036127;28;20236;-52
2022/06/26 11:32:17;;;;;;;6.43;5.93;;;;;;;;;;5032192;28;20248;-52
2022/06/26 11:34:48;;;;;;;5.60;5.20;;;;;;;;;;5037589;28;20285;-52
2022/06/26 11:37:14;;;;;;;5.20;4.80;;;;;;;;;;5032683;28;20236;-51
2022/06/26 11:39:41;;;;;;;5.63;5.22;;;;;;;;;;5032165;28;20244;-53
2022/06/26 11:42:14;;;;;;;5.45;5.07;;;;;;;;;;5015657;28;20239;-51
2022/06/26 11:44:46;;;;;;;5.70;5.30;;;;;;;;;;5021866;28;20705;-52
2022/06/26 11:47:13;;;;;;;5.85;5.45;;;;;;;;;;5021432;28;20244;-52
2022/06/26 11:49:41;;;;;;;4.90;4.50;;;;;;;;;;5025108;28;20237;-52
2022/06/26 11:52:07;;;;;;;4.80;4.45;;;;;;;;;;5022399;28;20235;-51
2022/06/26 11:54:34;;;;;;;4.90;4.60;;;;;;;;;;5018383;28;20232;-52
2022/06/26 11:57:04;;;;;;;4.57;4.18;;;;;;;;;;5020284;28;20239;-53
2022/06/26 11:59:31;;;;;;;4.68;4.38;;;;;;;;;;5037357;28;20231;-52
2022/06/26 12:01:57;;;;;;;4.68;4.32;;;;;;;;;;5034687;28;20231;-52
2022/06/26 12:04:23;;;;;;;4.10;3.80;;;;;;;;;;5028742;28;20234;-51
2022/06/26 12:06:52;;;;;;;3.67;3.38;;;;;;;;;;5026903;28;20229;-52
2022/06/26 12:09:20;;;;;;;3.65;3.45;;;;;;;;;;5026214;28;20787;-51
2022/06/26 12:11:47;;;;;;;3.60;3.35;;;;;;;;;;5040958;28;20234;-51
2022/06/26 12:14:16;;;;;;;3.63;3.33;;;;;;;;;;5042644;28;20725;-51
2022/06/26 12:16:45;;;;;;;3.75;3.55;;;;;;;;;;5032906;28;20236;-51
2022/06/26 12:19:12;;;;;;;3.75;3.40;;;;;;;;;;5039220;28;20227;-51
2022/06/26 12:21:38;;;;;;;3.28;3.08;;;;;;;;;;5029378;28;20376;-52
2022/06/26 12:24:10;;;;;;;8.02;3.33;;;;;;;;;;5030788;28;20726;-52
2022/06/26 12:26:38;;;;;;;4.43;3.50;;;;;;;;;;5035010;28;20705;-51
2022/06/26 12:29:10;;;;;;;4.20;3.90;;;;;;;;;;5024772;28;20227;-52
2022/06/26 12:31:36;;;;;;;4.05;3.75;;;;;;;;;;5014424;28;20224;-51
2022/06/26 12:34:04;;;;;;;4.10;3.90;;;;;;;;;;5029877;28;20228;-51
2022/06/26 12:36:30;;;;;;;4.53;4.22;;;;;;;;;;5032634;28;20231;-51
2022/06/26 12:38:57;;;;;;;4.85;4.47;;;;;;;;;;5018727;28;20232;-52
2022/06/26 12:41:25;;;;;;;4.70;4.30;;;;;;;;;;5039032;28;20729;-51
2022/06/26 12:43:52;;;;;;;5.10;4.70;;;;;;;;;;5029348;28;20231;-52
2022/06/26 12:46:19;;;;;;;5.40;4.90;;;;;;;;;;5027965;28;20251;-52
2022/06/26 12:48:46;;;;;;;4.30;4.00;;;;;;;;;;5024948;28;20223;-51
2022/06/26 12:51:13;;;;;;;4.70;4.30;;;;;;;;;;5021453;28;20261;-51
2022/06/26 12:53:39;;;;;;;4.47;4.05;;;;;;;;;;5033474;28;20239;-51
2022/06/26 12:56:06;;;;;;;4.72;4.43;;;;;;;;;;5028122;28;20231;-51
2022/06/26 12:58:34;;;;;;;4.82;4.53;;;;;;;;;;5023040;28;20231;-52
2022/06/26 13:01:00;;;;;;;4.72;4.43;;;;;;;;;;5034786;28;20239;-51
2022/06/26 13:03:27;;;;;;;4.43;4.13;;;;;;;;;;5027424;28;20244;-52
2022/06/26 13:05:53;;;;;;;5.13;4.72;;;;;;;;;;5033617;28;20231;-51
2022/06/26 13:08:19;;;;;;;4.28;4.07;;;;;;;;;;5034528;28;20249;-52
2022/06/26 13:10:46;;;;;;;5.07;4.68;;;;;;;;;;5039249;28;20706;-52
2022/06/26 13:13:12;;;;;;;5.25;4.72;;;;;;;;;;5022840;28;20786;-51
2022/06/26 13:15:40;;;;;;;6.07;4.70;;;;;;;;;;5031967;28;20235;-52
2022/06/26 13:18:06;;;;;;;3.92;3.72;;;;;;;;;;5018048;28;20229;-51
2022/06/26 13:20:33;;;;;;;5.35;4.95;;;;;;;;;;5040112;28;20238;-52
2022/06/26 13:22:59;;;;;;;4.63;4.32;;;;;;;;;;5043634;28;20223;-53
2022/06/26 13:25:26;;;;;;;4.85;4.55;;;;;;;;;;5046738;28;20227;-53
2022/06/26 13:27:52;;;;;;;4.32;3.92;;;;;;;;;;5043797;28;20228;-51
2022/06/26 13:30:18;;;;;;;4.40;4.10;;;;;;;;;;5042134;28;20236;-52
2022/06/26 13:32:46;;;;;;;4.53;4.13;;;;;;;;;;5045058;28;20223;-52
2022/06/26 13:35:13;;;;;;;4.00;3.80;;;;;;;;;;5041879;28;20281;-53
2022/06/26 13:37:40;;;;;;;6.07;3.80;;;;;;;;;;5037217;28;20228;-52
2022/06/26 13:40:07;;;;;;;4.50;4.20;;;;;;;;;;5032709;28;20243;-53
2022/06/26 13:42:34;;;;;;;5.18;4.10;;;;;;;;;;5042372;28;20228;-52
2022/06/26 13:45:00;;;;;;;4.20;3.88;;;;;;;;;;5038371;28;20280;-51
2022/06/26 13:47:27;;;;;;;3.97;3.67;;;;;;;;;;5036987;28;20235;-52
2022/06/26 13:49:54;;;;;;;4.35;4.05;;;;;;;;;;5035924;28;20232;-52
2022/06/26 13:52:20;;;;;;;5.15;4.75;;;;;;;;;;5042788;28;20255;-51
2022/06/26 13:54:47;;;;;;;5.30;4.88;;;;;;;;;;5030315;28;20742;-52
2022/06/26 13:57:13;;;;;;;4.32;4.07;;;;;;;;;;5035607;28;20232;-51
2022/06/26 13:59:40;;;;;;;5.10;4.80;;;;;;;;;;5022594;28;20246;-53
2022/06/26 14:02:06;;;;;;;5.00;4.50;;;;;;;;;;5033906;28;20263;-51
2022/06/26 14:04:33;;;;;;;5.00;4.28;;;;;;;;;;5026826;28;20239;-52
2022/06/26 14:07:02;;;;;;;4.78;4.50;;;;;;;;;;5019790;28;20323;-54
2022/06/26 14:09:28;;;;;;;5.32;4.50;;;;;;;;;;5031472;28;20228;-51
2022/06/26 14:11:55;;;;;;;5.00;4.65;;;;;;;;;;5035711;28;20242;-52
2022/06/26 14:14:21;;;;;;;5.03;4.63;;;;;;;;;;5032515;28;20315;-52
2022/06/26 14:16:47;;;;;;;4.53;4.22;;;;;;;;;;5039978;28;20242;-52
2022/06/26 14:19:14;;;;;;;4.88;4.50;;;;;;;;;;5029055;28;20229;-51
2022/06/26 14:21:40;;;;;;;4.85;4.35;;;;;;;;;;5029588;28;20228;-53
2022/06/26 14:26:51;;;;;;;4.38;4.07;;;;;;;;;;5042234;28;20736;-52
2022/06/26 14:29:18;;;;;;;4.47;4.20;;;;;;;;;;5042103;28;20240;-52
2022/06/26 14:31:44;;;;;;;4.45;4.20;;;;;;;;;;5034647;28;20231;-52
2022/06/26 14:34:10;;;;;;;4.60;4.30;;;;;;;;;;5022367;28;20295;-53
2022/06/26 14:36:37;;;;;;;4.40;4.10;;;;;;;;;;5030455;28;20311;-52
2022/06/26 14:39:03;;;;;;;4.68;4.38;;;;;;;;;;5043622;28;20234;-52
2022/06/26 14:41:31;;;;;;;4.80;4.50;;;;;;;;;;5034774;28;20233;-51
2022/06/26 14:43:59;;;;;;;4.20;3.90;;;;;;;;;;5037111;28;20232;-52
2022/06/26 14:46:27;;;;;;;4.30;3.95;;;;;;;;;;5017836;28;20233;-51
2022/06/26 14:48:53;;;;;;;4.07;3.78;;;;;;;;;;5039624;28;20294;-52
2022/06/26 14:51:20;;;;;;;4.10;3.80;;;;;;;;;;5031896;28;20251;-50
2022/06/26 14:53:46;;;;;;;4.47;4.07;;;;;;;;;;5035107;28;20240;-52